sensor_id;sensor_type;location;lat;lon;timestamp;temperature;humidity
827;DHT22;395;48.132;11.608;2023-08-31T00:02:02;14.50;5.60
827;DHT22;395;48.132;11.608;2023-08-31T00:04:29;14.40;5.60
827;DHT22;395;48.132;11.608;2023-08-31T00:06:55;14.40;8.00
827;DHT22;395;48.132;11.608;2023-08-31T00:09:23;14.40;6.50
827;DHT22;395;48.132;11.608;2023-08-31T00:11:50;14.40;6.60
827;DHT22;395;48.132;11.608;2023-08-31T00:14:15;14.30;7.30
827;DHT22;395;48.132;11.608;2023-08-31T00:16:41;14.30;5.10
827;DHT22;395;48.132;11.608;2023-08-31T00:19:07;14.30;4.70
827;DHT22;395;48.132;11.608;2023-08-31T00:21:33;14.30;6.50
827;DHT22;395;48.132;11.608;2023-08-31T00:23:58;14.20;6.50
827;DHT22;395;48.132;11.608;2023-08-31T00:26:25;14.20;6.40
827;DHT22;395;48.132;11.608;2023-08-31T00:28:50;14.20;6.80
827;DHT22;395;48.132;11.608;2023-08-31T00:31:16;14.20;7.70
827;DHT22;395;48.132;11.608;2023-08-31T00:33:42;14.10;8.00
827;DHT22;395;48.132;11.608;2023-08-31T00:36:08;14.10;7.50
827;DHT22;395;48.132;11.608;2023-08-31T00:38:34;14.10;7.50
827;DHT22;395;48.132;11.608;2023-08-31T00:41:01;14.10;7.90
827;DHT22;395;48.132;11.608;2023-08-31T00:43:27;14.00;6.10
827;DHT22;395;48.132;11.608;2023-08-31T00:45:55;14.00;7.80
827;DHT22;395;48.132;11.608;2023-08-31T00:48:23;14.00;6.60
827;DHT22;395;48.132;11.608;2023-08-31T00:50:50;14.00;6.70
827;DHT22;395;48.132;11.608;2023-08-31T00:53:17;14.00;6.30
827;DHT22;395;48.132;11.608;2023-08-31T00:55:46;14.00;6.30
827;DHT22;395;48.132;11.608;2023-08-31T00:58:13;14.00;5.90
827;DHT22;395;48.132;11.608;2023-08-31T01:03:42;14.10;2.00
827;DHT22;395;48.132;11.608;2023-08-31T01:11:37;14.00;1.60
827;DHT22;395;48.132;11.608;2023-08-31T01:14:16;13.90;1.80
827;DHT22;395;48.132;11.608;2023-08-31T01:16:45;14.00;1.20
827;DHT22;395;48.132;11.608;2023-08-31T01:19:52;14.00;2.70
827;DHT22;395;48.132;11.608;2023-08-31T01:22:45;14.00;2.00
827;DHT22;395;48.132;11.608;2023-08-31T01:25:13;14.00;1.10
827;DHT22;395;48.132;11.608;2023-08-31T01:27:38;13.90;2.40
827;DHT22;395;48.132;11.608;2023-08-31T01:30:05;13.90;1.60
827;DHT22;395;48.132;11.608;2023-08-31T01:32:32;13.90;1.20
827;DHT22;395;48.132;11.608;2023-08-31T01:34:58;13.90;1.40
827;DHT22;395;48.132;11.608;2023-08-31T01:42:42;14.00;2.40
827;DHT22;395;48.132;11.608;2023-08-31T01:45:08;14.00;1.10
827;DHT22;395;48.132;11.608;2023-08-31T01:47:35;14.10;1.00
827;DHT22;395;48.132;11.608;2023-08-31T01:50:01;14.10;1.20
827;DHT22;395;48.132;11.608;2023-08-31T01:52:27;14.20;2.60
827;DHT22;395;48.132;11.608;2023-08-31T01:54:53;14.20;4.00
827;DHT22;395;48.132;11.608;2023-08-31T01:57:18;14.10;5.50
827;DHT22;395;48.132;11.608;2023-08-31T01:59:44;14.20;5.40
827;DHT22;395;48.132;11.608;2023-08-31T02:02:10;14.20;6.40
827;DHT22;395;48.132;11.608;2023-08-31T02:04:35;14.20;7.80
827;DHT22;395;48.132;11.608;2023-08-31T02:07:01;14.20;7.30
827;DHT22;395;48.132;11.608;2023-08-31T02:09:27;14.20;8.20
827;DHT22;395;48.132;11.608;2023-08-31T02:11:53;14.20;10.20
827;DHT22;395;48.132;11.608;2023-08-31T02:14:18;14.20;6.70
827;DHT22;395;48.132;11.608;2023-08-31T02:16:44;14.20;9.30
827;DHT22;395;48.132;11.608;2023-08-31T02:19:10;14.20;4.50
827;DHT22;395;48.132;11.608;2023-08-31T02:21:35;14.20;5.80
827;DHT22;395;48.132;11.608;2023-08-31T02:24:01;14.20;4.70
827;DHT22;395;48.132;11.608;2023-08-31T02:26:28;14.20;3.60
827;DHT22;395;48.132;11.608;2023-08-31T02:28:54;14.20;5.90
827;DHT22;395;48.132;11.608;2023-08-31T02:31:19;14.30;1.00
827;DHT22;395;48.132;11.608;2023-08-31T02:33:46;14.20;1.50
827;DHT22;395;48.132;11.608;2023-08-31T02:36:12;14.30;1.00
827;DHT22;395;48.132;11.608;2023-08-31T02:38:38;14.30;1.00
827;DHT22;395;48.132;11.608;2023-08-31T02:41:03;14.30;4.50
827;DHT22;395;48.132;11.608;2023-08-31T02:43:29;14.30;5.80
827;DHT22;395;48.132;11.608;2023-08-31T02:46:02;14.30;11.20
827;DHT22;395;48.132;11.608;2023-08-31T02:48:29;14.20;11.10
827;DHT22;395;48.132;11.608;2023-08-31T02:50:57;14.10;11.30
827;DHT22;395;48.132;11.608;2023-08-31T02:53:23;14.10;12.10
827;DHT22;395;48.132;11.608;2023-08-31T02:55:49;13.90;14.90
827;DHT22;395;48.132;11.608;2023-08-31T02:58:16;13.90;23.60
827;DHT22;395;48.132;11.608;2023-08-31T03:00:41;13.80;20.40
827;DHT22;395;48.132;11.608;2023-08-31T03:03:10;13.80;23.80
827;DHT22;395;48.132;11.608;2023-08-31T03:05:35;13.80;27.80
827;DHT22;395;48.132;11.608;2023-08-31T03:08:01;13.80;29.20
827;DHT22;395;48.132;11.608;2023-08-31T03:10:26;13.80;30.00
827;DHT22;395;48.132;11.608;2023-08-31T03:12:52;13.80;30.70
827;DHT22;395;48.132;11.608;2023-08-31T03:15:18;13.80;29.70
827;DHT22;395;48.132;11.608;2023-08-31T03:17:43;13.80;30.00
827;DHT22;395;48.132;11.608;2023-08-31T03:20:09;13.90;32.60
827;DHT22;395;48.132;11.608;2023-08-31T03:22:35;13.90;31.60
827;DHT22;395;48.132;11.608;2023-08-31T03:25:01;14.00;30.50
827;DHT22;395;48.132;11.608;2023-08-31T03:27:26;13.90;27.90
827;DHT22;395;48.132;11.608;2023-08-31T03:29:52;13.80;30.00
827;DHT22;395;48.132;11.608;2023-08-31T03:32:18;13.80;31.60
827;DHT22;395;48.132;11.608;2023-08-31T03:34:44;13.80;33.60
827;DHT22;395;48.132;11.608;2023-08-31T03:37:10;13.80;30.40
827;DHT22;395;48.132;11.608;2023-08-31T03:39:36;13.80;28.00
827;DHT22;395;48.132;11.608;2023-08-31T03:42:02;13.80;26.80
827;DHT22;395;48.132;11.608;2023-08-31T03:44:28;13.90;26.80
827;DHT22;395;48.132;11.608;2023-08-31T03:46:54;13.90;27.60
827;DHT22;395;48.132;11.608;2023-08-31T03:49:19;13.80;28.50
827;DHT22;395;48.132;11.608;2023-08-31T03:51:45;13.80;28.20
827;DHT22;395;48.132;11.608;2023-08-31T03:54:11;13.80;28.20
827;DHT22;395;48.132;11.608;2023-08-31T03:56:38;13.80;25.90
827;DHT22;395;48.132;11.608;2023-08-31T03:59:04;13.80;25.30
827;DHT22;395;48.132;11.608;2023-08-31T04:01:30;13.70;23.90
827;DHT22;395;48.132;11.608;2023-08-31T04:03:56;13.70;25.70
827;DHT22;395;48.132;11.608;2023-08-31T04:06:22;13.70;24.30
827;DHT22;395;48.132;11.608;2023-08-31T04:08:47;13.70;25.10
827;DHT22;395;48.132;11.608;2023-08-31T04:11:13;13.70;26.80
827;DHT22;395;48.132;11.608;2023-08-31T04:13:39;13.60;24.60
827;DHT22;395;48.132;11.608;2023-08-31T04:16:05;13.70;26.40
827;DHT22;395;48.132;11.608;2023-08-31T04:18:31;13.70;24.70
827;DHT22;395;48.132;11.608;2023-08-31T04:20:56;13.60;26.70
827;DHT22;395;48.132;11.608;2023-08-31T04:23:24;13.60;27.60
827;DHT22;395;48.132;11.608;2023-08-31T04:25:50;13.60;27.70
827;DHT22;395;48.132;11.608;2023-08-31T04:28:19;13.60;27.60
827;DHT22;395;48.132;11.608;2023-08-31T04:30:45;13.60;25.80
827;DHT22;395;48.132;11.608;2023-08-31T04:33:10;13.60;27.60
827;DHT22;395;48.132;11.608;2023-08-31T04:35:36;13.60;27.70
827;DHT22;395;48.132;11.608;2023-08-31T04:38:01;13.60;28.30
827;DHT22;395;48.132;11.608;2023-08-31T04:40:28;13.50;28.70
827;DHT22;395;48.132;11.608;2023-08-31T04:42:56;13.60;28.70
827;DHT22;395;48.132;11.608;2023-08-31T04:45:22;13.60;26.60
827;DHT22;395;48.132;11.608;2023-08-31T04:47:47;13.60;27.70
827;DHT22;395;48.132;11.608;2023-08-31T04:50:14;13.60;28.50
827;DHT22;395;48.132;11.608;2023-08-31T04:52:40;13.70;29.10
827;DHT22;395;48.132;11.608;2023-08-31T04:55:06;13.60;27.40
827;DHT22;395;48.132;11.608;2023-08-31T04:57:38;13.60;29.80
827;DHT22;395;48.132;11.608;2023-08-31T05:00:04;13.60;30.60
827;DHT22;395;48.132;11.608;2023-08-31T05:02:30;13.70;29.40
827;DHT22;395;48.132;11.608;2023-08-31T05:04:55;13.70;29.70
827;DHT22;395;48.132;11.608;2023-08-31T05:07:21;13.70;27.80
827;DHT22;395;48.132;11.608;2023-08-31T05:09:47;13.70;26.10
827;DHT22;395;48.132;11.608;2023-08-31T05:12:12;13.70;27.70
827;DHT22;395;48.132;11.608;2023-08-31T05:14:38;13.80;28.20
827;DHT22;395;48.132;11.608;2023-08-31T05:17:05;13.80;28.70
827;DHT22;395;48.132;11.608;2023-08-31T05:19:31;13.80;28.60
827;DHT22;395;48.132;11.608;2023-08-31T05:21:56;13.80;28.30
827;DHT22;395;48.132;11.608;2023-08-31T05:24:22;13.90;28.20
827;DHT22;395;48.132;11.608;2023-08-31T05:26:49;13.80;25.80
827;DHT22;395;48.132;11.608;2023-08-31T05:29:15;13.90;27.90
827;DHT22;395;48.132;11.608;2023-08-31T05:31:40;13.90;25.80
827;DHT22;395;48.132;11.608;2023-08-31T05:34:06;13.90;26.60
827;DHT22;395;48.132;11.608;2023-08-31T05:36:32;13.90;26.80
827;DHT22;395;48.132;11.608;2023-08-31T05:38:57;13.90;25.80
827;DHT22;395;48.132;11.608;2023-08-31T05:41:23;14.00;26.50
827;DHT22;395;48.132;11.608;2023-08-31T05:43:49;14.00;25.20
827;DHT22;395;48.132;11.608;2023-08-31T05:46:14;14.00;27.00
827;DHT22;395;48.132;11.608;2023-08-31T05:48:40;14.10;28.00
827;DHT22;395;48.132;11.608;2023-08-31T05:51:05;14.00;27.30
827;DHT22;395;48.132;11.608;2023-08-31T05:53:31;14.00;26.70
827;DHT22;395;48.132;11.608;2023-08-31T05:55:58;14.10;26.00
827;DHT22;395;48.132;11.608;2023-08-31T05:58:33;13.90;26.10
827;DHT22;395;48.132;11.608;2023-08-31T06:01:03;14.10;26.20
827;DHT22;395;48.132;11.608;2023-08-31T06:03:29;14.20;27.20
827;DHT22;395;48.132;11.608;2023-08-31T06:05:57;14.20;26.60
827;DHT22;395;48.132;11.608;2023-08-31T06:08:23;14.20;26.20
827;DHT22;395;48.132;11.608;2023-08-31T06:10:49;14.20;27.30
827;DHT22;395;48.132;11.608;2023-08-31T06:13:15;14.30;26.00
827;DHT22;395;48.132;11.608;2023-08-31T06:15:40;14.40;25.50
827;DHT22;395;48.132;11.608;2023-08-31T06:18:06;14.40;24.70
827;DHT22;395;48.132;11.608;2023-08-31T06:20:32;14.50;24.30
827;DHT22;395;48.132;11.608;2023-08-31T06:22:59;14.60;23.70
827;DHT22;395;48.132;11.608;2023-08-31T06:25:24;14.60;24.10
827;DHT22;395;48.132;11.608;2023-08-31T06:27:50;14.70;22.20
827;DHT22;395;48.132;11.608;2023-08-31T06:30:17;14.70;22.70
827;DHT22;395;48.132;11.608;2023-08-31T06:32:43;14.70;19.00
827;DHT22;395;48.132;11.608;2023-08-31T06:35:10;14.80;20.80
827;DHT22;395;48.132;11.608;2023-08-31T06:37:36;14.80;18.20
827;DHT22;395;48.132;11.608;2023-08-31T06:40:02;14.80;18.10
827;DHT22;395;48.132;11.608;2023-08-31T06:42:27;14.80;17.50
827;DHT22;395;48.132;11.608;2023-08-31T06:44:53;14.80;17.10
827;DHT22;395;48.132;11.608;2023-08-31T06:47:21;14.80;17.90
827;DHT22;395;48.132;11.608;2023-08-31T06:49:47;14.80;15.90
827;DHT22;395;48.132;11.608;2023-08-31T06:52:12;14.80;18.60
827;DHT22;395;48.132;11.608;2023-08-31T06:54:38;14.90;14.90
827;DHT22;395;48.132;11.608;2023-08-31T06:57:04;14.80;15.90
827;DHT22;395;48.132;11.608;2023-08-31T06:59:30;14.90;14.30
827;DHT22;395;48.132;11.608;2023-08-31T07:01:55;14.90;14.60
827;DHT22;395;48.132;11.608;2023-08-31T07:04:21;14.90;11.40
827;DHT22;395;48.132;11.608;2023-08-31T07:06:47;14.90;11.90
827;DHT22;395;48.132;11.608;2023-08-31T07:09:12;14.90;11.70
827;DHT22;395;48.132;11.608;2023-08-31T07:11:38;14.90;12.50
827;DHT22;395;48.132;11.608;2023-08-31T07:14:04;15.00;14.80
827;DHT22;395;48.132;11.608;2023-08-31T07:16:29;15.00;12.40
827;DHT22;395;48.132;11.608;2023-08-31T07:18:55;15.10;10.40
827;DHT22;395;48.132;11.608;2023-08-31T07:21:20;15.20;10.30
827;DHT22;395;48.132;11.608;2023-08-31T07:23:46;15.20;8.00
827;DHT22;395;48.132;11.608;2023-08-31T07:26:12;15.10;8.30
827;DHT22;395;48.132;11.608;2023-08-31T07:28:37;15.10;8.50
827;DHT22;395;48.132;11.608;2023-08-31T07:31:06;15.20;9.10
827;DHT22;395;48.132;11.608;2023-08-31T07:33:33;15.20;6.40
827;DHT22;395;48.132;11.608;2023-08-31T07:36:00;15.30;7.00
827;DHT22;395;48.132;11.608;2023-08-31T07:38:27;15.40;6.50
827;DHT22;395;48.132;11.608;2023-08-31T07:40:53;15.40;5.50
827;DHT22;395;48.132;11.608;2023-08-31T07:43:19;15.40;4.30
827;DHT22;395;48.132;11.608;2023-08-31T07:45:44;15.50;3.10
827;DHT22;395;48.132;11.608;2023-08-31T07:48:10;15.80;1.90
827;DHT22;395;48.132;11.608;2023-08-31T07:50:36;15.50;1.00
827;DHT22;395;48.132;11.608;2023-08-31T07:53:01;15.50;1.10
827;DHT22;395;48.132;11.608;2023-08-31T07:55:28;15.50;1.00
827;DHT22;395;48.132;11.608;2023-08-31T07:57:54;15.60;1.00
827;DHT22;395;48.132;11.608;2023-08-31T08:00:20;15.60;1.00
827;DHT22;395;48.132;11.608;2023-08-31T08:02:46;15.60;1.20
827;DHT22;395;48.132;11.608;2023-08-31T08:05:11;15.70;1.00
827;DHT22;395;48.132;11.608;2023-08-31T08:07:37;15.80;1.00
827;DHT22;395;48.132;11.608;2023-08-31T08:10:03;16.00;1.00
827;DHT22;395;48.132;11.608;2023-08-31T08:12:39;16.10;1.00
827;DHT22;395;48.132;11.608;2023-08-31T08:15:07;16.20;1.00
827;DHT22;395;48.132;11.608;2023-08-31T08:17:33;16.20;1.00
827;DHT22;395;48.132;11.608;2023-08-31T08:19:59;16.30;1.00
827;DHT22;395;48.132;11.608;2023-08-31T08:22:25;16.50;1.00
827;DHT22;395;48.132;11.608;2023-08-31T08:24:51;16.50;1.00
827;DHT22;395;48.132;11.608;2023-08-31T08:27:16;16.50;1.00
827;DHT22;395;48.132;11.608;2023-08-31T08:29:44;16.60;1.00
827;DHT22;395;48.132;11.608;2023-08-31T08:32:10;16.60;1.00
827;DHT22;395;48.132;11.608;2023-08-31T08:34:36;16.50;1.00
827;DHT22;395;48.132;11.608;2023-08-31T08:37:01;16.50;1.00
827;DHT22;395;48.132;11.608;2023-08-31T08:39:29;16.40;1.00
827;DHT22;395;48.132;11.608;2023-08-31T08:41:57;16.30;1.00
827;DHT22;395;48.132;11.608;2023-08-31T08:44:25;16.30;1.00
827;DHT22;395;48.132;11.608;2023-08-31T08:46:52;16.30;1.00
827;DHT22;395;48.132;11.608;2023-08-31T08:49:18;16.40;1.00
827;DHT22;395;48.132;11.608;2023-08-31T08:51:45;16.50;1.00
827;DHT22;395;48.132;11.608;2023-08-31T08:54:13;16.60;1.00
827;DHT22;395;48.132;11.608;2023-08-31T08:56:39;16.60;1.00
827;DHT22;395;48.132;11.608;2023-08-31T08:59:05;16.60;1.00
827;DHT22;395;48.132;11.608;2023-08-31T09:01:34;16.70;1.00
827;DHT22;395;48.132;11.608;2023-08-31T09:04:00;16.80;1.00
827;DHT22;395;48.132;11.608;2023-08-31T09:06:27;16.90;1.00
827;DHT22;395;48.132;11.608;2023-08-31T09:08:56;17.00;1.00
827;DHT22;395;48.132;11.608;2023-08-31T09:11:23;17.10;1.00
827;DHT22;395;48.132;11.608;2023-08-31T09:13:49;16.90;1.00
827;DHT22;395;48.132;11.608;2023-08-31T09:16:29;17.00;1.00
827;DHT22;395;48.132;11.608;2023-08-31T09:18:58;16.90;1.00
827;DHT22;395;48.132;11.608;2023-08-31T09:21:37;17.00;1.00
827;DHT22;395;48.132;11.608;2023-08-31T09:24:06;16.80;1.00
827;DHT22;395;48.132;11.608;2023-08-31T09:26:40;16.80;1.00
827;DHT22;395;48.132;11.608;2023-08-31T09:29:06;16.60;1.00
827;DHT22;395;48.132;11.608;2023-08-31T09:31:32;16.60;1.00
827;DHT22;395;48.132;11.608;2023-08-31T09:33:58;16.70;1.00
827;DHT22;395;48.132;11.608;2023-08-31T09:36:23;16.70;1.00
827;DHT22;395;48.132;11.608;2023-08-31T09:38:49;16.70;1.00
827;DHT22;395;48.132;11.608;2023-08-31T09:41:15;16.90;1.00
827;DHT22;395;48.132;11.608;2023-08-31T09:43:41;16.90;1.00
827;DHT22;395;48.132;11.608;2023-08-31T09:46:08;16.90;1.00
827;DHT22;395;48.132;11.608;2023-08-31T09:48:35;16.90;1.00
827;DHT22;395;48.132;11.608;2023-08-31T09:51:04;17.10;1.00
827;DHT22;395;48.132;11.608;2023-08-31T09:53:31;17.20;1.00
827;DHT22;395;48.132;11.608;2023-08-31T09:55:57;17.50;1.00
827;DHT22;395;48.132;11.608;2023-08-31T09:58:23;17.50;1.00
827;DHT22;395;48.132;11.608;2023-08-31T10:00:51;17.60;1.00
827;DHT22;395;48.132;11.608;2023-08-31T10:03:16;17.50;1.00
827;DHT22;395;48.132;11.608;2023-08-31T10:05:47;17.40;1.00
827;DHT22;395;48.132;11.608;2023-08-31T10:08:14;17.30;1.00
827;DHT22;395;48.132;11.608;2023-08-31T10:10:40;17.10;1.00
827;DHT22;395;48.132;11.608;2023-08-31T10:13:06;17.10;1.00
827;DHT22;395;48.132;11.608;2023-08-31T10:15:34;17.00;1.00
827;DHT22;395;48.132;11.608;2023-08-31T10:18:01;16.90;1.00
827;DHT22;395;48.132;11.608;2023-08-31T10:20:28;16.90;1.00
827;DHT22;395;48.132;11.608;2023-08-31T10:23:03;16.90;1.00
827;DHT22;395;48.132;11.608;2023-08-31T10:28:17;17.20;1.00
827;DHT22;395;48.132;11.608;2023-08-31T10:33:26;17.40;1.00
827;DHT22;395;48.132;11.608;2023-08-31T10:35:55;17.40;1.00
827;DHT22;395;48.132;11.608;2023-08-31T10:48:53;17.40;1.00
827;DHT22;395;48.132;11.608;2023-08-31T10:51:22;17.40;1.00
827;DHT22;395;48.132;11.608;2023-08-31T10:53:48;17.50;1.00
827;DHT22;395;48.132;11.608;2023-08-31T10:56:18;17.50;1.00
827;DHT22;395;48.132;11.608;2023-08-31T10:58:58;17.50;1.00
827;DHT22;395;48.132;11.608;2023-08-31T11:04:22;17.40;1.00
827;DHT22;395;48.132;11.608;2023-08-31T11:06:48;17.30;1.00
827;DHT22;395;48.132;11.608;2023-08-31T11:09:21;17.40;1.00
827;DHT22;395;48.132;11.608;2023-08-31T11:11:47;17.40;1.00
827;DHT22;395;48.132;11.608;2023-08-31T11:14:14;17.20;1.00
827;DHT22;395;48.132;11.608;2023-08-31T11:16:41;17.10;1.00
827;DHT22;395;48.132;11.608;2023-08-31T11:19:08;17.20;1.00
827;DHT22;395;48.132;11.608;2023-08-31T11:21:36;17.10;1.00
827;DHT22;395;48.132;11.608;2023-08-31T11:24:02;17.10;1.00
827;DHT22;395;48.132;11.608;2023-08-31T11:26:31;17.20;1.00
827;DHT22;395;48.132;11.608;2023-08-31T11:28:57;17.10;1.00
827;DHT22;395;48.132;11.608;2023-08-31T11:31:26;16.80;1.00
827;DHT22;395;48.132;11.608;2023-08-31T11:33:53;16.60;1.00
827;DHT22;395;48.132;11.608;2023-08-31T11:36:19;16.60;1.00
827;DHT22;395;48.132;11.608;2023-08-31T11:38:45;16.60;1.00
827;DHT22;395;48.132;11.608;2023-08-31T11:41:11;16.80;1.00
827;DHT22;395;48.132;11.608;2023-08-31T11:43:37;17.00;1.00
827;DHT22;395;48.132;11.608;2023-08-31T11:46:03;17.20;1.00
827;DHT22;395;48.132;11.608;2023-08-31T11:48:31;17.40;1.00
827;DHT22;395;48.132;11.608;2023-08-31T11:50:57;17.40;1.00
827;DHT22;395;48.132;11.608;2023-08-31T11:53:23;17.60;1.00
827;DHT22;395;48.132;11.608;2023-08-31T11:55:50;17.80;1.00
827;DHT22;395;48.132;11.608;2023-08-31T11:58:16;17.80;1.00
827;DHT22;395;48.132;11.608;2023-08-31T12:00:43;18.00;1.00
827;DHT22;395;48.132;11.608;2023-08-31T12:03:09;17.90;1.00
827;DHT22;395;48.132;11.608;2023-08-31T12:05:48;18.00;1.00
827;DHT22;395;48.132;11.608;2023-08-31T12:08:24;18.00;1.00
827;DHT22;395;48.132;11.608;2023-08-31T12:10:50;18.00;1.00
827;DHT22;395;48.132;11.608;2023-08-31T12:13:16;17.80;1.00
827;DHT22;395;48.132;11.608;2023-08-31T12:15:41;17.70;1.00
827;DHT22;395;48.132;11.608;2023-08-31T12:18:11;17.60;1.00
827;DHT22;395;48.132;11.608;2023-08-31T12:20:52;17.30;1.00
827;DHT22;395;48.132;11.608;2023-08-31T12:23:18;17.20;1.00
827;DHT22;395;48.132;11.608;2023-08-31T12:25:51;17.30;1.00
827;DHT22;395;48.132;11.608;2023-08-31T12:28:18;17.30;1.00
827;DHT22;395;48.132;11.608;2023-08-31T12:30:54;17.30;1.00
827;DHT22;395;48.132;11.608;2023-08-31T12:33:22;17.30;1.00
827;DHT22;395;48.132;11.608;2023-08-31T12:35:47;17.40;1.00
827;DHT22;395;48.132;11.608;2023-08-31T12:38:15;17.40;1.00
827;DHT22;395;48.132;11.608;2023-08-31T12:40:40;17.50;1.00
827;DHT22;395;48.132;11.608;2023-08-31T12:43:06;17.70;1.00
827;DHT22;395;48.132;11.608;2023-08-31T12:45:32;18.20;1.00
827;DHT22;395;48.132;11.608;2023-08-31T12:47:59;18.30;1.00
827;DHT22;395;48.132;11.608;2023-08-31T12:50:24;18.30;1.00
827;DHT22;395;48.132;11.608;2023-08-31T12:52:50;18.50;1.00
827;DHT22;395;48.132;11.608;2023-08-31T12:55:16;18.30;1.00
827;DHT22;395;48.132;11.608;2023-08-31T12:57:42;18.30;1.00
827;DHT22;395;48.132;11.608;2023-08-31T13:00:09;18.20;1.00
827;DHT22;395;48.132;11.608;2023-08-31T13:02:41;18.20;1.00
827;DHT22;395;48.132;11.608;2023-08-31T13:05:09;18.30;1.00
827;DHT22;395;48.132;11.608;2023-08-31T13:07:38;18.40;1.00
827;DHT22;395;48.132;11.608;2023-08-31T13:10:05;18.60;1.00
827;DHT22;395;48.132;11.608;2023-08-31T13:12:31;18.80;1.00
827;DHT22;395;48.132;11.608;2023-08-31T13:14:58;18.80;1.00
827;DHT22;395;48.132;11.608;2023-08-31T13:17:24;18.60;1.00
827;DHT22;395;48.132;11.608;2023-08-31T13:19:53;18.60;1.00
827;DHT22;395;48.132;11.608;2023-08-31T13:22:19;18.50;1.00
827;DHT22;395;48.132;11.608;2023-08-31T13:24:45;18.40;1.00
827;DHT22;395;48.132;11.608;2023-08-31T13:27:11;18.40;1.00
827;DHT22;395;48.132;11.608;2023-08-31T13:29:37;18.30;1.00
827;DHT22;395;48.132;11.608;2023-08-31T13:32:05;18.20;1.00
827;DHT22;395;48.132;11.608;2023-08-31T13:34:30;18.40;1.00
827;DHT22;395;48.132;11.608;2023-08-31T13:36:56;18.40;1.00
827;DHT22;395;48.132;11.608;2023-08-31T13:39:22;18.50;1.00
827;DHT22;395;48.132;11.608;2023-08-31T13:41:51;18.70;1.00
827;DHT22;395;48.132;11.608;2023-08-31T13:44:20;18.80;1.00
827;DHT22;395;48.132;11.608;2023-08-31T13:46:46;18.90;1.00
827;DHT22;395;48.132;11.608;2023-08-31T13:49:12;18.60;1.00
827;DHT22;395;48.132;11.608;2023-08-31T13:51:38;18.80;1.00
827;DHT22;395;48.132;11.608;2023-08-31T13:54:05;19.10;1.00
827;DHT22;395;48.132;11.608;2023-08-31T13:56:30;19.30;1.00
827;DHT22;395;48.132;11.608;2023-08-31T13:58:56;19.30;1.00
827;DHT22;395;48.132;11.608;2023-08-31T14:01:21;19.40;1.00
827;DHT22;395;48.132;11.608;2023-08-31T14:03:47;19.30;1.00
827;DHT22;395;48.132;11.608;2023-08-31T14:06:13;19.50;1.00
827;DHT22;395;48.132;11.608;2023-08-31T14:08:40;19.50;1.00
827;DHT22;395;48.132;11.608;2023-08-31T14:11:06;19.50;1.00
827;DHT22;395;48.132;11.608;2023-08-31T14:13:32;19.60;1.00
827;DHT22;395;48.132;11.608;2023-08-31T14:15:59;19.60;1.00
827;DHT22;395;48.132;11.608;2023-08-31T14:18:26;19.50;1.00
827;DHT22;395;48.132;11.608;2023-08-31T14:20:54;19.40;1.00
827;DHT22;395;48.132;11.608;2023-08-31T14:23:20;19.20;1.00
827;DHT22;395;48.132;11.608;2023-08-31T14:25:46;19.30;1.00
827;DHT22;395;48.132;11.608;2023-08-31T14:28:11;19.30;1.00
827;DHT22;395;48.132;11.608;2023-08-31T14:30:37;19.00;1.00
827;DHT22;395;48.132;11.608;2023-08-31T14:33:04;19.00;1.00
827;DHT22;395;48.132;11.608;2023-08-31T14:35:29;19.00;1.00
827;DHT22;395;48.132;11.608;2023-08-31T14:37:56;19.00;1.00
827;DHT22;395;48.132;11.608;2023-08-31T14:40:22;18.90;1.00
827;DHT22;395;48.132;11.608;2023-08-31T14:42:47;19.00;1.00
827;DHT22;395;48.132;11.608;2023-08-31T14:45:13;19.00;1.00
827;DHT22;395;48.132;11.608;2023-08-31T14:47:39;19.00;1.00
827;DHT22;395;48.132;11.608;2023-08-31T14:50:05;19.20;1.00
827;DHT22;395;48.132;11.608;2023-08-31T14:52:30;19.30;1.00
827;DHT22;395;48.132;11.608;2023-08-31T14:54:56;19.30;1.00
827;DHT22;395;48.132;11.608;2023-08-31T14:57:22;19.40;1.00
827;DHT22;395;48.132;11.608;2023-08-31T14:59:48;19.30;1.00
827;DHT22;395;48.132;11.608;2023-08-31T15:02:15;19.10;1.00
827;DHT22;395;48.132;11.608;2023-08-31T15:04:41;19.00;1.00
827;DHT22;395;48.132;11.608;2023-08-31T15:07:07;18.90;1.00
827;DHT22;395;48.132;11.608;2023-08-31T15:09:33;19.00;1.00
827;DHT22;395;48.132;11.608;2023-08-31T15:11:58;19.10;1.00
827;DHT22;395;48.132;11.608;2023-08-31T15:14:24;19.20;1.00
827;DHT22;395;48.132;11.608;2023-08-31T15:16:49;19.20;1.00
827;DHT22;395;48.132;11.608;2023-08-31T15:19:15;19.20;1.00
827;DHT22;395;48.132;11.608;2023-08-31T15:21:41;19.20;1.00
827;DHT22;395;48.132;11.608;2023-08-31T15:24:06;19.10;1.00
827;DHT22;395;48.132;11.608;2023-08-31T15:26:33;19.10;1.00
827;DHT22;395;48.132;11.608;2023-08-31T15:28:58;19.00;1.00
827;DHT22;395;48.132;11.608;2023-08-31T15:31:24;19.00;1.00
827;DHT22;395;48.132;11.608;2023-08-31T15:33:50;19.00;1.00
827;DHT22;395;48.132;11.608;2023-08-31T15:36:16;18.90;1.00
827;DHT22;395;48.132;11.608;2023-08-31T15:38:42;18.90;1.00
827;DHT22;395;48.132;11.608;2023-08-31T15:41:08;18.90;1.00
827;DHT22;395;48.132;11.608;2023-08-31T15:43:35;18.90;1.00
827;DHT22;395;48.132;11.608;2023-08-31T15:46:03;19.00;1.00
827;DHT22;395;48.132;11.608;2023-08-31T15:48:28;18.90;1.00
827;DHT22;395;48.132;11.608;2023-08-31T15:50:55;18.90;1.00
827;DHT22;395;48.132;11.608;2023-08-31T15:53:21;19.00;1.00
827;DHT22;395;48.132;11.608;2023-08-31T15:55:48;19.00;1.00
827;DHT22;395;48.132;11.608;2023-08-31T15:58:14;18.90;1.00
827;DHT22;395;48.132;11.608;2023-08-31T16:00:40;18.80;1.00
827;DHT22;395;48.132;11.608;2023-08-31T16:03:06;18.80;1.00
827;DHT22;395;48.132;11.608;2023-08-31T16:05:33;18.70;1.00
827;DHT22;395;48.132;11.608;2023-08-31T16:08:00;18.50;1.00
827;DHT22;395;48.132;11.608;2023-08-31T16:10:26;18.50;1.00
827;DHT22;395;48.132;11.608;2023-08-31T16:12:53;18.50;1.00
827;DHT22;395;48.132;11.608;2023-08-31T16:15:18;18.60;1.00
827;DHT22;395;48.132;11.608;2023-08-31T16:17:44;18.70;1.00
827;DHT22;395;48.132;11.608;2023-08-31T16:20:10;18.80;1.00
827;DHT22;395;48.132;11.608;2023-08-31T16:22:37;18.60;1.00
827;DHT22;395;48.132;11.608;2023-08-31T16:25:03;18.60;1.00
827;DHT22;395;48.132;11.608;2023-08-31T16:27:30;18.60;1.00
827;DHT22;395;48.132;11.608;2023-08-31T16:29:57;18.50;1.00
827;DHT22;395;48.132;11.608;2023-08-31T16:32:23;18.40;1.00
827;DHT22;395;48.132;11.608;2023-08-31T16:34:52;18.20;1.00
827;DHT22;395;48.132;11.608;2023-08-31T16:37:21;18.10;1.00
827;DHT22;395;48.132;11.608;2023-08-31T16:39:49;18.00;1.00
827;DHT22;395;48.132;11.608;2023-08-31T16:42:15;18.00;1.00
827;DHT22;395;48.132;11.608;2023-08-31T16:44:40;18.00;1.00
827;DHT22;395;48.132;11.608;2023-08-31T16:47:07;17.90;1.00
827;DHT22;395;48.132;11.608;2023-08-31T16:49:33;17.90;1.00
827;DHT22;395;48.132;11.608;2023-08-31T16:51:58;17.90;1.00
827;DHT22;395;48.132;11.608;2023-08-31T16:54:25;17.90;1.00
827;DHT22;395;48.132;11.608;2023-08-31T16:56:51;17.80;1.00
827;DHT22;395;48.132;11.608;2023-08-31T16:59:21;17.80;1.00